Springfield, OH (45502)

10:42 AM EST on February 10, 2016 (GMT -0500)
Snyder Park | | Change Station
CLOSE
Current Station
Personal Weather Station
Location: Springfield, OH
Elevation: 919 ft
Nearby Weather Stations
Active Advisory: Winter Weather Advisory Active Notice: Local Storm Report

Elev 919 ft 39.93 °N, 83.85 °W | Updated 5 seconds ago

Snow
Snow
16.0 °F
Feels Like 6 °F
N
7.6
Wind Variable Wind from West
Gusts 12.7 mph

Today
High -- | Low -- °F
--% Chance of Precip.
Yesterday
High -- | Low -- °F
Precip. -- in
Pressure 29.94 in
Visibility 2.5 miles
Clouds Scattered Clouds 100 ft
Mostly Cloudy 1400 ft
Overcast 2000 ft
Windchill 6 °F
Dew Point 12 °F
Humidity 82%
Rainfall 0.00 in
Snow Depth Not available.
7:34 AM 6:04 PM
Waxing Crescent, 6% visible
SPECI KSGH 101524Z AUTO 25012KT 2 1/2SM -SN SCT001 BKN014 OVC020 M09/M12 A2994 RMK AO2 BKN V OVC P0000
Pressure 29.94 in
Visibility 2.5 miles
Clouds Scattered Clouds 100 ft
Mostly Cloudy 1400 ft
Overcast 2000 ft
Windchill 6 °F
Dew Point 12 °F
Humidity 82%
Rainfall 0.00 in
Snow Depth Not available.
7:34 AM 6:04 PM
Waxing Crescent, 6% visible
SPECI KSGH 101524Z AUTO 25012KT 2 1/2SM -SN SCT001 BKN014 OVC020 M09/M12 A2994 RMK AO2 BKN V OVC P0000

10-Day Weather Forecast

Almanac

Astronomy

Feb. 10, 2016 Rise Set
Actual Time
Civil Twilight
Nautical Twilight
Astronomical Twilight
Moon
Length of Visible Light
Length of Day
Tomorrow will be .
, % of the Moon is Illuminated

Today's Extremes

State Highs State Lows

Community

WunderPhotos

Upload Photos

1,891,863 photos uploaded!

WunderBlog® & News

Nearby

Air Quality

  Air Quality AQ Index Pollutant
Not available.

Snow Depth

Station Depth Elevation

Earthquake Activity

City Distance Mag. Time & Date
Minimum magnitude displayed is 2.5.

Coastal Water Temperatures

Place Temperature

Stations

Nearby Weather Stations

Station Location Temp. Windchill Dew Point Humidity Wind Precip. Elev Updated Type
                   

Watches & Warnings

Winter Weather Advisory
Issued: 9:45 AM EST Feb. 10, 2016 – National Weather Service

... Winter Weather Advisory now in effect until 1 PM EST this
afternoon...

* timing... snow showers expected through early afternoon... then
scattered snow showers and a few flurries will occur for the
remainder of the afternoon.

* Accumulations... snow accumulations of up to 1 inch expected.

* Impacts... travel difficulties are expected due to reduced
visibilities and snow accumulations.

Precautionary/preparedness actions...

Remember... a Winter Weather Advisory for snow means that periods
of snow will cause primarily travel difficulties. Be prepared for
snow covered roads and limited visibilities... and use caution
while driving. Stay tuned to NOAA Weather Radio or your favorite
source of information for the latest updates. Additional details
can also be found at www.Weather.Gov/iln as well as on our
facebook and twitter pages.